Flight Track Log - Related Links

Times and Time Zones

All times are in EST time to prevent confusion due to time zone crossing. See the ASQ5685 flight status page for this flight to view local times or setup timezone preferences in your user account.

Time Position Orientation Groundspeed Altitude Reporting Facility
EST Latitude Longitude Course Direction KTS MPH feet Rate Location/Type
Sun 09:37:07 AM 33.6333 -84.3667 65° Northeast 202 232 2,600  Level Atlanta TRACON
Sun 09:38:07 AM 33.6333 -84.2833 90° East 271 312 4,800 2,450 Climbing Atlanta TRACON
Sun 09:39:00 AM 33.8727 -84.1474 54° Northeast  Level Estimated
Sun 09:39:07 AM 33.6333 -84.1833 90° East 291 335 7,500  Level Atlanta TRACON
Sun 09:40:00 AM 33.8706 -84.0142 91° East  Level FlightAware Approximate
Sun 09:40:07 AM 33.6500 -84.0833 79° East 316 364 9,800  Level Atlanta TRACON
Sun 09:40:42 AM 33.6817 -84.0414 48° Northeast 333 383 10,700 1,200 Climbing Atlanta Center
Sun 09:41:00 AM 33.9499 -83.9212 53° Northeast  Level Estimated
Sun 09:41:42 AM 33.7400 -83.9639 48° Northeast 343 395 11,700  Level Atlanta Center
Sun 09:42:00 AM 33.9971 -83.8006 65° Northeast  Level FlightAware Approximate
Sun 09:42:42 AM 33.8108 -83.8714 47° Northeast 356 410 13,500  Level Atlanta Center
Sun 09:43:42 AM 33.8817 -83.7786 47° Northeast 367 422 15,300 1,850 Climbing Atlanta Center
Sun 09:44:42 AM 33.9503 -83.6833 49° Northeast 372 428 17,200 1,500 Climbing Atlanta Center
Sun 09:45:42 AM 34.0125 -83.5828 53° Northeast 377 434 18,300 1,250 Climbing Atlanta Center
Sun 09:46:42 AM 34.0769 -83.4794 53° Northeast 377 434 19,700 1,250 Climbing Atlanta Center
Sun 09:47:42 AM 34.1431 -83.3736 53° Northeast 388 447 20,800 1,050 Climbing Atlanta Center
Sun 09:48:42 AM 34.2092 -83.2625 54° Northeast 393 452 21,800 1,000 Climbing Atlanta Center
Sun 09:49:42 AM 34.2856 -83.1436 52° Northeast 403 464 22,800 1,000 Climbing Atlanta Center
Sun 09:50:42 AM 34.3558 -83.0322 53° Northeast 408 470 23,800 1,000 Climbing Atlanta Center
Sun 09:51:42 AM 34.4258 -82.9181 53° Northeast 413 475 24,800 850 Climbing Atlanta Center
Sun 09:52:42 AM 34.4936 -82.8064 54° Northeast 413 475 25,500 600 Climbing Atlanta Center
Sun 09:53:42 AM 34.5717 -82.6892 51° Northeast 423 487 26,000 450 Climbing Atlanta Center
Sun 09:54:42 AM 34.6247 -82.5897 57° Northeast 435 501 26,400 450 Climbing Atlanta Center
Sun 09:55:42 AM 34.7086 -82.4594 52° Northeast 440 506 26,900 300 Climbing Atlanta Center
Sun 09:56:42 AM 34.7864 -82.3392 52° Northeast 446 513 27,000 50 Climbing Atlanta Center
Sun 09:57:42 AM 34.8617 -82.2086 55° Northeast 451 519 27,000  Level Atlanta Center
Sun 09:58:42 AM 34.9533 -82.0647 52° Northeast 472 543 27,000  Level Atlanta Center
Sun 09:59:42 AM 35.0325 -81.9333 54° Northeast 483 556 27,000  Level Atlanta Center
Sun 10:00:42 AM 35.1094 -81.7944 56° Northeast 488 562 27,000  Level Atlanta Center
Sun 10:01:42 AM 35.1797 -81.6503 59° Northeast 493 567 27,000  Level Atlanta Center
Sun 10:02:42 AM 35.2561 -81.5081 57° Northeast 493 567 27,000  Level Atlanta Center
Sun 10:03:42 AM 35.3303 -81.3631 58° Northeast 493 567 27,000  Level Atlanta Center
Sun 10:04:42 AM 35.4042 -81.2206 58° Northeast 493 567 27,000  Level Atlanta Center
Sun 10:05:42 AM 35.4761 -81.0881 56° Northeast 498 573 27,000  Level Atlanta Center
Sun 10:06:42 AM 35.5519 -80.9425 57° Northeast 498 573 27,000  Level Atlanta Center
Sun 10:07:42 AM 35.6256 -80.7992 58° Northeast 498 573 27,000  Level Atlanta Center
Sun 10:08:42 AM 35.7028 -80.6503 57° Northeast 503 579 27,000  Level Atlanta Center
Sun 10:09:42 AM 35.7758 -80.5039 58° Northeast 503 579 27,000  Level Atlanta Center
Sun 10:12:01 AM 35.9586 -80.1494 57° Northeast 504 580 27,000  Level Washington Center
Sun 10:13:03 AM 36.0242 -80.0197 58° Northeast 504 580 27,000  Level Washington Center
Sun 10:14:02 AM 36.1064 -79.8753 55° Northeast 504 580 27,000  Level Washington Center
Sun 10:15:02 AM 36.1936 -79.7153 56° Northeast 504 580 27,000  Level Washington Center
Sun 10:16:00 AM 36.2669 -79.5825 56° Northeast 509 586 27,000  Level Washington Center
Sun 10:17:01 AM 36.3486 -79.4447 54° Northeast 509 586 27,000 -148 Level Washington Center
Sun 10:18:02 AM 36.4372 -79.2814 56° Northeast 509 586 26,700 -496 Descending Washington Center
Sun 10:19:02 AM 36.5189 -79.1353 55° Northeast 509 586 26,000 -545 Descending Washington Center
Sun 10:20:03 AM 36.5933 -79.0094 54° Northeast 503 579 25,600 -504 Descending Washington Center
Sun 10:21:01 AM 36.6814 -78.8475 56° Northeast 503 579 25,000 -303 Descending Washington Center
Sun 10:22:02 AM 36.7494 -78.7181 57° Northeast 503 579 25,000  Level Washington Center
Sun 10:23:02 AM 36.8283 -78.5761 55° Northeast 503 579 25,000  Level Washington Center
Sun 10:24:03 AM 36.9156 -78.4183 55° Northeast 503 579 25,000  Level Washington Center
Sun 10:25:03 AM 36.9961 -78.2756 55° Northeast 503 579 25,000  Level Washington Center
Sun 10:26:02 AM 37.0922 -78.1644 43° Northeast 472 543 25,000  Level Washington Center
Sun 10:27:02 AM 37.2047 -78.0794 31° Northeast 464 534 25,000  Level Washington Center
Sun 10:28:03 AM 37.3169 -77.9944 31° Northeast 464 534 25,000 -454 Level Washington Center
Sun 10:29:01 AM 37.4314 -77.9064 31° Northeast 469 540 24,100 -1,525 Descending Washington Center
Sun 10:30:01 AM 37.5414 -77.8208 32° Northeast 469 540 22,000 -1,587 Descending Washington Center
Sun 10:31:02 AM 37.6553 -77.7533 25° Northeast 463 533 20,900 -1,869 Descending Washington Center
Sun 10:32:03 AM 37.7669 -77.6908 24° Northeast 452 520 18,200 -2,420 Descending Washington Center
Sun 10:33:01 AM 37.8744 -77.6253 26° Northeast 437 503 16,100 -2,269 Descending Washington Center
Sun 10:34:02 AM 37.9778 -77.5650 25° Northeast 425 489 13,700 -2,115 Descending Washington Center
Sun 10:35:03 AM 38.0681 -77.5144 24° Northeast 405 466 11,800 -1,488 Descending Washington Center
Sun 10:36:03 AM 38.1733 -77.4511 25° Northeast 379 436 10,700 -923 Descending Washington Center
Sun 10:37:00 AM 38.2303 -77.4183 24° Northeast 331 381 10,000 -814 Descending Washington Center
Sun 10:38:01 AM 38.3019 -77.3722 27° Northeast 294 338 9,100 -885 Descending Washington Center
Sun 10:39:02 AM 38.3858 -77.3347 19° North 283 326 8,200 -1,140 Descending Washington Center
Sun 10:40:02 AM 38.4583 -77.3603 345° North 275 316 6,800 -1,240 Descending Washington Center
Sun 10:41:03 AM 38.5356 -77.3647 357° North 275 316 5,700 -958 Descending Washington Center
Sun 10:42:01 AM 38.6064 -77.3664 359° North 270 311 4,900 -772 Descending Washington Center
Sun 10:42:44 AM 38.6667 -77.3667 360° North 257 296 4,400 -519 Descending Potomac TRACON
Sun 10:43:45 AM 38.7333 -77.3500 11° North 253 291 4,000 -198 Descending Potomac TRACON
Sun 10:44:45 AM 38.8167 -77.3500 360° North 254 292 4,000 -250 Level Potomac TRACON
Sun 10:45:45 AM 38.8833 -77.3500 360° North 250 288 3,500 -470 Descending Potomac TRACON
Sun 10:46:40 AM 38.9500 -77.3500 360° North 252 290 3,100 -417 Descending Potomac TRACON
Sun 10:47:40 AM 39.0167 -77.3500 360° North 246 283 2,700 -500 Descending Potomac TRACON
Sun 10:48:40 AM 39.0500 -77.3833 322° Northwest 217 250 2,100 -550 Descending Potomac TRACON
Sun 10:49:40 AM 39.0167 -77.4167 218° Southwest 163 188 1,600 -574 Descending Potomac TRACON
Sun 10:50:35 AM 38.9833 -77.4333 201° Southwest 141 162 1,000 -655 Descending Potomac TRACON

Login

Don't have an account? Register now (free) for customized features, flight alerts, and more!